createdAt,value
2018-05-11T00:00:24.230Z,944.37
2018-05-11T00:01:32.171Z,944.36
2018-05-11T00:02:40.240Z,944.39
2018-05-11T00:03:48.293Z,944.35
2018-05-11T00:04:56.393Z,944.36
2018-05-11T00:06:04.530Z,944.31
2018-05-11T00:07:12.496Z,944.37
2018-05-11T00:08:20.538Z,944.35
2018-05-11T00:09:28.612Z,944.35
2018-05-11T00:10:36.657Z,944.35
2018-05-11T00:11:44.834Z,944.30
2018-05-11T00:12:52.779Z,944.34
2018-05-11T00:14:00.847Z,944.33
2018-05-11T00:15:08.917Z,944.36
2018-05-11T00:16:16.983Z,944.35
2018-05-11T00:17:25.139Z,944.33
2018-05-11T00:18:33.098Z,944.38
2018-05-11T00:19:41.163Z,944.34
2018-05-11T00:20:49.221Z,944.34
2018-05-11T00:21:57.277Z,944.31
2018-05-11T00:23:05.554Z,944.31
2018-05-11T00:24:13.398Z,944.28
2018-05-11T00:25:21.435Z,944.30
2018-05-11T00:26:29.505Z,944.32
2018-05-11T00:27:37.985Z,944.30
2018-05-11T00:28:45.714Z,944.29
2018-05-11T00:29:53.692Z,944.34
2018-05-11T00:31:01.727Z,944.35
2018-05-11T00:32:09.807Z,944.32
2018-05-11T00:33:17.853Z,944.33
2018-05-11T00:34:26.022Z,944.38
2018-05-11T00:35:33.952Z,944.40
2018-05-11T00:36:42.022Z,944.41
2018-05-11T00:37:50.123Z,944.41
2018-05-11T00:38:58.166Z,944.41
2018-05-11T00:40:06.436Z,944.40
2018-05-11T00:41:14.272Z,944.39
2018-05-11T00:42:22.350Z,944.37
2018-05-11T00:43:30.399Z,944.37
2018-05-11T00:44:38.444Z,944.40
2018-05-11T00:45:46.620Z,944.34
2018-05-11T00:46:54.591Z,944.31
2018-05-11T00:48:02.669Z,944.29
2018-05-11T00:49:10.694Z,944.31
2018-05-11T00:50:18.774Z,944.29
2018-05-11T00:51:26.910Z,944.28
2018-05-11T00:52:34.878Z,944.30
2018-05-11T00:53:42.945Z,944.31
2018-05-11T00:54:50.999Z,944.30
2018-05-11T00:55:59.054Z,944.28
2018-05-11T00:57:07.208Z,944.26
2018-05-11T00:58:15.155Z,944.28
2018-05-11T00:59:23.236Z,944.25
2018-05-11T01:00:31.298Z,944.26
2018-05-11T01:01:39.358Z,944.22
2018-05-11T01:02:47.516Z,944.22
2018-05-11T01:03:55.456Z,944.23
2018-05-11T01:05:03.542Z,944.21
2018-05-11T01:06:11.560Z,944.20
2018-05-11T01:07:19.658Z,944.21
2018-05-11T01:08:27.817Z,944.19
2018-05-11T01:09:35.777Z,944.22
2018-05-11T01:10:43.832Z,944.24
2018-05-11T01:11:51.873Z,944.26
2018-05-11T01:12:59.940Z,944.26
2018-05-11T01:14:08.095Z,944.25
2018-05-11T01:15:16.045Z,944.25
2018-05-11T01:16:24.118Z,944.22
2018-05-11T01:17:32.157Z,944.22
2018-05-11T01:18:40.247Z,944.17
2018-05-11T01:19:48.393Z,944.15
2018-05-11T01:20:56.352Z,944.15
2018-05-11T01:22:04.425Z,944.14
2018-05-11T01:23:12.483Z,944.14
2018-05-11T01:24:20.526Z,944.12
2018-05-11T01:25:28.663Z,944.06
2018-05-11T01:26:36.645Z,944.10
2018-05-11T01:27:44.687Z,944.09
2018-05-11T01:28:52.758Z,944.05
2018-05-11T01:30:00.814Z,944.04
2018-05-11T01:31:08.984Z,943.96
2018-05-11T01:32:16.943Z,944.02
2018-05-11T01:33:24.986Z,944.03
2018-05-11T01:34:33.047Z,944.00
2018-05-11T01:35:41.114Z,944.01
2018-05-11T01:36:49.271Z,943.97
2018-05-11T01:37:57.225Z,944.02
2018-05-11T01:39:05.299Z,944.02
2018-05-11T01:40:13.365Z,944.01
2018-05-11T01:41:21.388Z,944.00
2018-05-11T01:42:29.569Z,944.04
2018-05-11T01:43:37.538Z,943.99
2018-05-11T01:44:45.704Z,943.96
2018-05-11T01:45:53.636Z,943.96
2018-05-11T01:47:01.687Z,943.95
2018-05-11T01:48:09.868Z,943.93
2018-05-11T01:49:17.812Z,943.90
2018-05-11T01:50:25.872Z,943.89
2018-05-11T01:51:33.937Z,943.88
2018-05-11T01:52:41.986Z,943.91
2018-05-11T01:53:50.158Z,943.91
2018-05-11T01:54:58.114Z,943.86
2018-05-11T01:56:06.167Z,943.88
2018-05-11T01:57:14.225Z,943.84
2018-05-11T01:58:22.290Z,943.83
2018-05-11T01:59:30.434Z,943.84
2018-05-11T02:00:38.405Z,943.84
2018-05-11T02:01:46.489Z,943.84
2018-05-11T02:02:54.525Z,943.83
2018-05-11T02:04:02.582Z,943.79
2018-05-11T02:05:10.741Z,943.79
2018-05-11T02:06:18.698Z,943.77
2018-05-11T02:07:26.746Z,943.78
2018-05-11T02:08:34.812Z,943.75
2018-05-11T02:09:42.871Z,943.72
2018-05-11T02:10:51.028Z,943.68
2018-05-11T02:11:58.980Z,943.72
2018-05-11T02:13:07.065Z,943.68
2018-05-11T02:14:15.105Z,943.70
2018-05-11T02:15:23.164Z,943.72
2018-05-11T02:16:31.318Z,943.69
2018-05-11T02:17:39.277Z,943.66
2018-05-11T02:18:47.332Z,943.66
2018-05-11T02:19:55.399Z,943.66
2018-05-11T02:21:03.471Z,943.64
2018-05-11T02:22:11.590Z,943.61
2018-05-11T02:23:19.555Z,943.58
2018-05-11T02:24:27.645Z,943.58
2018-05-11T02:25:35.694Z,943.56
2018-05-11T02:26:43.739Z,943.56
2018-05-11T02:27:51.893Z,943.55
2018-05-11T02:28:59.876Z,943.52
2018-05-11T02:30:07.924Z,943.52
2018-05-11T02:31:15.986Z,943.51
2018-05-11T02:32:24.056Z,943.46
2018-05-11T02:33:32.190Z,943.49
2018-05-11T02:34:40.167Z,943.51
2018-05-11T02:35:48.227Z,943.49
2018-05-11T02:36:56.274Z,943.44
2018-05-11T02:38:04.331Z,943.42
2018-05-11T02:39:12.487Z,943.42
2018-05-11T02:40:20.445Z,943.42
2018-05-11T02:41:28.509Z,943.40
2018-05-11T02:42:36.571Z,943.40
2018-05-11T02:43:44.630Z,943.39
2018-05-11T02:44:52.785Z,943.38
2018-05-11T02:46:00.752Z,943.36
2018-05-11T02:47:08.811Z,943.38
2018-05-11T02:48:16.860Z,943.34
2018-05-11T02:49:24.925Z,943.29
2018-05-11T02:50:33.144Z,943.28
2018-05-11T02:51:41.036Z,943.31
2018-05-11T02:52:49.096Z,943.30
2018-05-11T02:53:57.155Z,943.30
2018-05-11T02:55:05.211Z,943.31
2018-05-11T02:56:13.394Z,943.26
2018-05-11T02:57:21.318Z,943.32
2018-05-11T02:58:29.382Z,943.29
2018-05-11T02:59:37.448Z,943.30
2018-05-11T03:00:45.495Z,943.33
2018-05-11T03:01:53.652Z,943.30
2018-05-11T03:03:01.603Z,943.33
2018-05-11T03:04:09.654Z,943.27
2018-05-11T03:05:17.724Z,943.31
2018-05-11T03:06:25.797Z,943.31
2018-05-11T03:07:34.077Z,943.31
2018-05-11T03:08:41.898Z,943.30
2018-05-11T03:09:49.978Z,943.33
2018-05-11T03:10:58.008Z,943.29
2018-05-11T03:12:06.092Z,943.31
2018-05-11T03:13:14.234Z,943.28
2018-05-11T03:14:22.183Z,943.31
2018-05-11T03:15:30.266Z,943.27
2018-05-11T03:16:38.312Z,943.30
2018-05-11T03:17:46.523Z,943.29
2018-05-11T03:18:54.529Z,943.29
2018-05-11T03:20:02.461Z,943.29
2018-05-11T03:21:10.546Z,943.29
2018-05-11T03:22:18.612Z,943.33
2018-05-11T03:23:26.668Z,943.29
2018-05-11T03:24:34.824Z,943.28
2018-05-11T03:25:42.772Z,943.29
2018-05-11T03:26:50.855Z,943.26
2018-05-11T03:27:58.899Z,943.24
2018-05-11T03:29:06.968Z,943.23
2018-05-11T03:30:15.112Z,943.24
2018-05-11T03:31:23.108Z,943.19
2018-05-11T03:32:31.138Z,943.21
2018-05-11T03:33:39.228Z,943.18
2018-05-11T03:34:47.252Z,943.20
2018-05-11T03:35:55.404Z,943.19
2018-05-11T03:37:03.373Z,943.18
2018-05-11T03:38:11.419Z,943.20
2018-05-11T03:39:19.492Z,943.25
2018-05-11T03:40:27.539Z,943.21
2018-05-11T03:41:35.696Z,943.27
2018-05-11T03:42:43.664Z,943.20
2018-05-11T03:43:51.706Z,943.26
2018-05-11T03:44:59.750Z,943.28
2018-05-11T03:46:07.821Z,943.33
2018-05-11T03:47:15.985Z,943.34
2018-05-11T03:48:23.950Z,943.36
2018-05-11T03:49:31.984Z,943.34
2018-05-11T03:50:40.052Z,943.30
2018-05-11T03:51:48.112Z,943.32
2018-05-11T03:52:56.270Z,943.29
2018-05-11T03:54:04.221Z,943.29
2018-05-11T03:55:12.278Z,943.26
2018-05-11T03:56:20.342Z,943.23
2018-05-11T03:57:28.401Z,943.25
2018-05-11T03:58:36.555Z,943.23
2018-05-11T03:59:44.525Z,943.24
2018-05-11T04:00:52.590Z,943.25
2018-05-11T04:02:00.632Z,943.32
2018-05-11T04:03:08.694Z,943.30
2018-05-11T04:04:16.856Z,943.31
2018-05-11T04:05:24.821Z,943.33
2018-05-11T04:06:32.856Z,943.31
2018-05-11T04:07:40.930Z,943.28
2018-05-11T04:08:48.988Z,943.29
2018-05-11T04:09:57.160Z,943.32
2018-05-11T04:11:05.100Z,943.27
2018-05-11T04:12:13.164Z,943.28
2018-05-11T04:13:21.214Z,943.27
2018-05-11T04:14:29.275Z,943.29
2018-05-11T04:15:37.433Z,943.31
2018-05-11T04:16:45.380Z,943.32
2018-05-11T04:17:53.459Z,943.35
2018-05-11T04:19:01.506Z,943.34
2018-05-11T04:20:09.573Z,943.34
2018-05-11T04:21:17.722Z,943.34
2018-05-11T04:22:25.678Z,943.34
2018-05-11T04:23:33.733Z,943.33
2018-05-11T04:24:41.782Z,943.36
2018-05-11T04:25:49.944Z,943.37
2018-05-11T04:26:58.028Z,943.39
2018-05-11T04:28:05.968Z,943.40
2018-05-11T04:29:14.146Z,943.40
2018-05-11T04:30:22.123Z,943.38
2018-05-11T04:31:30.158Z,943.37
2018-05-11T04:32:38.299Z,943.34
2018-05-11T04:33:46.270Z,943.31
2018-05-11T04:34:55.009Z,943.34
2018-05-11T04:36:02.398Z,943.31
2018-05-11T04:37:10.450Z,943.30
2018-05-11T04:38:18.585Z,943.34
2018-05-11T04:39:26.563Z,943.36
2018-05-11T04:40:34.620Z,943.33
2018-05-11T04:41:42.677Z,943.37
2018-05-11T04:42:50.744Z,943.35
2018-05-11T04:44:00.494Z,943.36
2018-05-11T04:45:06.986Z,943.36
2018-05-11T04:46:14.907Z,943.34
2018-05-11T04:47:22.967Z,943.32
2018-05-11T04:48:31.022Z,943.37
2018-05-11T04:49:39.188Z,943.30
2018-05-11T04:50:47.146Z,943.33
2018-05-11T04:51:55.189Z,943.31
2018-05-11T04:53:03.285Z,943.30
2018-05-11T04:54:11.310Z,943.28
2018-05-11T04:55:19.476Z,943.33
2018-05-11T04:56:27.442Z,943.42
2018-05-11T04:57:35.490Z,943.35
2018-05-11T04:58:43.642Z,943.30
2018-05-11T04:59:51.594Z,943.28
2018-05-11T05:00:59.777Z,943.27
2018-05-11T05:02:07.732Z,943.28
2018-05-11T05:03:15.771Z,943.26
2018-05-11T05:04:23.844Z,943.28
2018-05-11T05:05:31.876Z,943.37
2018-05-11T05:06:40.065Z,943.51
2018-05-11T05:07:48.019Z,943.49
2018-05-11T05:08:56.083Z,943.36
2018-05-11T05:10:04.318Z,943.29
2018-05-11T05:11:12.218Z,943.26
2018-05-11T05:12:20.402Z,943.22
2018-05-11T05:13:28.328Z,943.26
2018-05-11T05:14:36.390Z,943.22
2018-05-11T05:15:44.430Z,943.25
2018-05-11T05:16:52.504Z,943.25
2018-05-11T05:18:00.659Z,943.25
2018-05-11T05:19:08.710Z,943.30
2018-05-11T05:20:16.686Z,943.30
2018-05-11T05:21:24.751Z,943.32
2018-05-11T05:22:32.776Z,943.32
2018-05-11T05:23:41.098Z,943.37
2018-05-11T05:24:48.924Z,943.40
2018-05-11T05:25:56.992Z,943.36
2018-05-11T05:27:05.037Z,943.37
2018-05-11T05:28:13.096Z,943.35
2018-05-11T05:29:21.258Z,943.38
2018-05-11T05:30:29.211Z,943.36
2018-05-11T05:31:37.273Z,943.36
2018-05-11T05:32:45.343Z,943.35
2018-05-11T05:33:53.386Z,943.43
2018-05-11T05:35:01.539Z,943.45
2018-05-11T05:36:09.504Z,943.46
2018-05-11T05:37:17.565Z,943.53
2018-05-11T05:38:25.630Z,943.54
2018-05-11T05:39:33.703Z,943.56
2018-05-11T05:40:41.831Z,943.61
2018-05-11T05:41:49.857Z,943.60
2018-05-11T05:42:57.859Z,943.62
2018-05-11T05:44:05.956Z,943.64
2018-05-11T05:45:13.993Z,943.62
2018-05-11T05:46:22.134Z,943.59
2018-05-11T05:47:30.106Z,943.67
2018-05-11T05:48:38.177Z,943.65
2018-05-11T05:49:46.242Z,943.61
2018-05-11T05:50:54.294Z,943.68
2018-05-11T05:52:02.493Z,943.61
2018-05-11T05:53:10.401Z,943.64
2018-05-11T05:54:18.489Z,943.64
2018-05-11T05:55:26.546Z,943.65
2018-05-11T05:56:34.597Z,943.66
2018-05-11T05:57:42.881Z,943.68
2018-05-11T05:58:50.718Z,943.67
2018-05-11T05:59:58.767Z,943.67
2018-05-11T06:01:06.839Z,943.66
2018-05-11T06:02:14.889Z,943.71
2018-05-11T06:03:23.069Z,943.65
2018-05-11T06:04:31.042Z,943.71
2018-05-11T06:05:39.086Z,943.71
2018-05-11T06:06:47.144Z,943.73
2018-05-11T06:07:55.206Z,943.69
2018-05-11T06:09:03.361Z,943.66
2018-05-11T06:10:11.460Z,943.67
2018-05-11T06:11:19.377Z,943.65
2018-05-11T06:12:27.473Z,943.64
2018-05-11T06:13:35.498Z,943.63
2018-05-11T06:14:43.670Z,943.68
2018-05-11T06:15:51.617Z,943.61
2018-05-11T06:16:59.695Z,943.67
2018-05-11T06:18:07.740Z,943.74
2018-05-11T06:19:15.799Z,943.69
2018-05-11T06:20:23.966Z,943.77
2018-05-11T06:21:31.912Z,943.75
2018-05-11T06:22:39.985Z,943.69
2018-05-11T06:23:48.060Z,943.70
2018-05-11T06:24:56.197Z,943.64
2018-05-11T06:26:04.268Z,943.69
2018-05-11T06:27:12.221Z,943.65
2018-05-11T06:28:20.287Z,943.67
2018-05-11T06:29:28.369Z,943.71
2018-05-11T06:30:36.431Z,943.65
2018-05-11T06:31:44.587Z,943.71
2018-05-11T06:32:52.539Z,943.70
2018-05-11T06:34:00.591Z,943.76
2018-05-11T06:35:08.667Z,943.76
2018-05-11T06:36:16.705Z,943.76
2018-05-11T06:37:24.884Z,943.72
2018-05-11T06:38:32.838Z,943.73
2018-05-11T06:39:40.914Z,943.67
2018-05-11T06:40:48.975Z,943.69
2018-05-11T06:41:57.034Z,943.68
2018-05-11T06:43:05.185Z,943.68
2018-05-11T06:44:13.154Z,943.71
2018-05-11T06:45:21.215Z,943.69
2018-05-11T06:46:29.293Z,943.69
2018-05-11T06:47:37.351Z,943.67
2018-05-11T06:48:45.499Z,943.72
2018-05-11T06:49:53.482Z,943.71
2018-05-11T06:51:01.511Z,943.75
2018-05-11T06:52:09.587Z,943.76
2018-05-11T06:53:17.650Z,943.74
2018-05-11T06:54:25.802Z,943.74
2018-05-11T06:55:33.775Z,943.76
2018-05-11T06:56:41.817Z,943.72
2018-05-11T06:57:49.896Z,943.73
2018-05-11T06:58:57.949Z,943.68
2018-05-11T07:00:06.125Z,943.66
2018-05-11T07:01:14.087Z,943.68
2018-05-11T07:02:22.117Z,943.71
2018-05-11T07:03:30.204Z,943.67
2018-05-11T07:04:38.263Z,943.72
2018-05-11T07:05:46.425Z,943.69
2018-05-11T07:06:54.428Z,943.68
2018-05-11T07:08:02.516Z,943.67
2018-05-11T07:09:10.508Z,943.74
2018-05-11T07:10:18.584Z,943.77
2018-05-11T07:11:26.734Z,943.66
2018-05-11T07:12:34.702Z,943.92
2018-05-11T07:13:42.766Z,943.83
2018-05-11T07:14:50.828Z,943.89
2018-05-11T07:15:58.881Z,943.90
2018-05-11T07:17:07.057Z,944.28
2018-05-11T07:18:15.022Z,944.59
2018-05-11T07:19:23.139Z,944.03
2018-05-11T07:20:31.139Z,944.03
2018-05-11T07:21:39.210Z,944.33
2018-05-11T07:22:47.369Z,944.51
2018-05-11T07:23:55.340Z,944.79
2018-05-11T07:25:03.404Z,945.11
2018-05-11T07:26:11.449Z,944.87
2018-05-11T07:27:19.527Z,944.50
2018-05-11T07:28:27.711Z,944.44
2018-05-11T07:29:35.658Z,945.05
2018-05-11T07:30:43.723Z,944.93
2018-05-11T07:31:51.892Z,945.45
2018-05-11T07:32:59.840Z,945.81
2018-05-11T07:34:08.032Z,946.24
2018-05-11T07:35:15.987Z,946.43
2018-05-11T07:36:24.056Z,944.82
2018-05-11T07:37:32.108Z,945.77
2018-05-11T07:38:40.198Z,945.65
2018-05-11T07:39:48.369Z,944.59
2018-05-11T07:40:56.351Z,944.09
2018-05-11T07:42:04.417Z,945.18
2018-05-11T07:43:12.563Z,946.00
2018-05-11T07:44:20.555Z,945.63
2018-05-11T07:45:28.718Z,945.97
2018-05-11T07:46:36.695Z,944.67
2018-05-11T07:47:44.754Z,943.97
2018-05-11T07:48:52.826Z,944.14
2018-05-11T07:50:00.898Z,943.71
2018-05-11T07:51:09.082Z,944.85
2018-05-11T07:52:17.037Z,945.71
2018-05-11T07:53:25.109Z,946.62
2018-05-11T07:54:33.185Z,947.58
2018-05-11T07:55:41.287Z,944.49
2018-05-11T07:56:49.441Z,944.26
2018-05-11T07:57:57.402Z,947.49
2018-05-11T07:59:05.455Z,946.08
2018-05-11T08:00:13.533Z,944.45
2018-05-11T08:01:21.583Z,944.38
2018-05-11T08:02:29.774Z,951.59
2018-05-11T08:03:37.751Z,952.29
2018-05-11T08:04:45.839Z,952.79
2018-05-11T08:05:53.910Z,953.27
2018-05-11T08:07:01.954Z,950.64
2018-05-11T08:08:10.139Z,943.94
2018-05-11T08:09:18.114Z,952.30
2018-05-11T08:10:26.225Z,948.41
2018-05-11T08:11:34.260Z,952.49
2018-05-11T08:12:42.328Z,953.36
2018-05-11T08:13:50.508Z,952.93
2018-05-11T08:14:58.494Z,952.17
2018-05-11T08:16:06.551Z,952.11
2018-05-11T08:17:14.621Z,952.60
2018-05-11T08:18:22.700Z,951.36
2018-05-11T08:19:30.862Z,951.61
2018-05-11T08:20:38.850Z,952.28
2018-05-11T08:21:46.918Z,944.57
2018-05-11T08:22:54.967Z,948.85
2018-05-11T08:24:03.072Z,949.13
2018-05-11T08:25:11.235Z,950.27
2018-05-11T08:26:19.223Z,951.90
2018-05-11T08:27:27.313Z,953.66
2018-05-11T08:28:35.379Z,954.62
2018-05-11T08:29:43.468Z,954.51
2018-05-11T08:30:51.597Z,953.96
2018-05-11T08:31:59.610Z,953.47
2018-05-11T08:33:07.687Z,953.96
2018-05-11T08:34:15.770Z,954.44
2018-05-11T08:35:23.838Z,952.53
2018-05-11T08:36:32.003Z,943.74
2018-05-11T08:37:39.983Z,944.57
2018-05-11T08:38:48.056Z,951.40
2018-05-11T08:39:56.141Z,951.23
2018-05-11T08:41:04.232Z,950.92
2018-05-11T08:42:12.398Z,951.01
2018-05-11T08:43:20.389Z,951.73
2018-05-11T08:44:28.461Z,950.50
2018-05-11T08:45:36.536Z,948.63
2018-05-11T08:46:44.614Z,947.87
2018-05-11T08:47:52.802Z,947.08
2018-05-11T08:49:00.775Z,947.55
2018-05-11T08:50:08.852Z,947.40
2018-05-11T08:51:16.911Z,947.81
2018-05-11T08:52:25.019Z,948.18
2018-05-11T08:53:33.175Z,945.61
2018-05-11T08:54:41.181Z,947.98
2018-05-11T08:55:49.262Z,947.74
2018-05-11T08:56:57.323Z,948.29
2018-05-11T08:58:05.423Z,948.64
2018-05-11T08:59:13.573Z,949.09
2018-05-11T09:00:21.567Z,949.23
2018-05-11T09:01:29.637Z,948.80
2018-05-11T09:02:37.720Z,948.83
2018-05-11T09:03:45.807Z,948.15
2018-05-11T09:04:53.966Z,947.06
2018-05-11T09:06:01.971Z,947.02
2018-05-11T09:07:10.043Z,944.00
2018-05-11T09:08:18.113Z,943.73
2018-05-11T09:09:26.194Z,943.57
2018-05-11T09:10:34.364Z,943.40
2018-05-11T09:11:42.337Z,943.31
2018-05-11T09:12:50.416Z,943.28
2018-05-11T09:13:58.496Z,943.36
2018-05-11T09:15:06.575Z,943.45
2018-05-11T09:16:14.775Z,943.41
2018-05-11T09:17:22.734Z,943.52
2018-05-11T09:18:30.807Z,943.27
2018-05-11T09:19:38.870Z,943.18
2018-05-11T09:20:46.948Z,943.29
2018-05-11T09:21:55.182Z,943.44
2018-05-11T09:23:03.079Z,943.45
2018-05-11T09:24:11.163Z,943.42
2018-05-11T09:25:19.240Z,943.36
2018-05-11T09:26:27.294Z,943.27
2018-05-11T09:27:35.555Z,943.48
2018-05-11T09:28:43.449Z,943.55
2018-05-11T09:29:51.496Z,943.45
2018-05-11T09:30:59.592Z,943.45
2018-05-11T09:32:07.662Z,943.40
2018-05-11T09:33:15.833Z,943.45
2018-05-11T09:34:23.799Z,943.39
2018-05-11T09:35:31.857Z,943.27
2018-05-11T09:36:39.944Z,943.34
2018-05-11T09:37:48.020Z,943.12
2018-05-11T09:38:56.184Z,943.19
2018-05-11T09:40:04.164Z,943.34
2018-05-11T09:41:12.222Z,943.43
2018-05-11T09:42:20.307Z,943.34
2018-05-11T09:43:28.375Z,943.21
2018-05-11T09:44:36.541Z,943.26
2018-05-11T09:45:44.526Z,943.27
2018-05-11T09:46:52.605Z,943.22
2018-05-11T09:48:00.655Z,943.16
2018-05-11T09:49:08.725Z,943.22
2018-05-11T09:50:16.878Z,943.36
2018-05-11T09:51:24.870Z,943.40
2018-05-11T09:52:32.936Z,943.41
2018-05-11T09:53:40.996Z,943.36
2018-05-11T09:54:49.074Z,943.29
2018-05-11T09:55:57.229Z,943.36
2018-05-11T09:57:05.190Z,943.29
2018-05-11T09:58:13.273Z,943.30
2018-05-11T09:59:21.329Z,943.27
2018-05-11T10:00:29.407Z,943.21
2018-05-11T10:01:37.639Z,943.19
2018-05-11T10:02:45.539Z,943.15
2018-05-11T10:03:53.616Z,943.21
2018-05-11T10:05:01.673Z,943.32
2018-05-11T10:06:09.775Z,943.18
2018-05-11T10:07:17.936Z,943.05
2018-05-11T10:08:25.907Z,943.00
2018-05-11T10:09:33.955Z,943.06
2018-05-11T10:10:42.019Z,943.04
2018-05-11T10:11:50.128Z,943.04
2018-05-11T10:12:58.275Z,943.14
2018-05-11T10:14:06.254Z,943.16
2018-05-11T10:15:14.316Z,943.22
2018-05-11T10:16:22.517Z,943.35
2018-05-11T10:17:30.454Z,943.11
2018-05-11T10:18:38.613Z,943.12
2018-05-11T10:19:46.591Z,943.19
2018-05-11T10:20:54.761Z,943.15
2018-05-11T10:22:02.743Z,943.12
2018-05-11T10:23:10.799Z,943.17
2018-05-11T10:24:18.982Z,943.14
2018-05-11T10:25:26.924Z,943.10
2018-05-11T10:26:34.999Z,943.05
2018-05-11T10:27:43.085Z,943.04
2018-05-11T10:28:51.223Z,943.10
2018-05-11T10:29:59.316Z,943.04
2018-05-11T10:31:07.263Z,943.03
2018-05-11T10:32:15.371Z,943.13
2018-05-11T10:33:23.451Z,943.10
2018-05-11T10:34:31.522Z,943.14
2018-05-11T10:35:39.670Z,943.08
2018-05-11T10:36:47.637Z,942.98
2018-05-11T10:37:55.679Z,942.92
2018-05-11T10:39:03.767Z,942.96
2018-05-11T10:40:11.824Z,943.18
2018-05-11T10:41:20.027Z,943.14
2018-05-11T10:42:27.984Z,943.01
2018-05-11T10:43:36.069Z,943.04
2018-05-11T10:44:44.162Z,943.00
2018-05-11T10:45:52.166Z,942.93
2018-05-11T10:47:00.348Z,942.81
2018-05-11T10:48:08.335Z,942.93
2018-05-11T10:49:16.412Z,942.91
2018-05-11T10:50:24.471Z,943.02
2018-05-11T10:51:32.538Z,943.04
2018-05-11T10:52:40.715Z,942.97
2018-05-11T10:53:48.671Z,942.99
2018-05-11T10:54:56.743Z,943.07
2018-05-11T10:56:04.827Z,943.11
2018-05-11T10:57:12.884Z,943.04
2018-05-11T10:58:21.045Z,943.03
2018-05-11T10:59:29.027Z,942.99
2018-05-11T11:00:37.091Z,942.91
2018-05-11T11:01:45.165Z,942.80
2018-05-11T11:02:53.240Z,942.78
2018-05-11T11:04:01.374Z,942.82
2018-05-11T11:05:09.369Z,942.76
2018-05-11T11:06:17.442Z,942.76
2018-05-11T11:07:25.490Z,942.81
2018-05-11T11:08:33.568Z,942.76
2018-05-11T11:09:41.708Z,942.77
2018-05-11T11:10:49.685Z,942.77
2018-05-11T11:11:57.781Z,942.79
2018-05-11T11:13:05.847Z,942.85
2018-05-11T11:14:13.914Z,942.81
2018-05-11T11:15:22.050Z,942.79
2018-05-11T11:16:30.054Z,942.77
2018-05-11T11:17:38.123Z,942.75
2018-05-11T11:18:46.186Z,942.78
2018-05-11T11:19:54.315Z,942.76
2018-05-11T11:21:02.424Z,942.77
2018-05-11T11:22:10.386Z,942.76
2018-05-11T11:23:18.474Z,942.78
2018-05-11T11:24:26.524Z,942.76
2018-05-11T11:25:34.591Z,942.81
2018-05-11T11:26:42.767Z,942.71
2018-05-11T11:27:50.739Z,942.75
2018-05-11T11:28:58.801Z,942.79
2018-05-11T11:30:06.888Z,942.90
2018-05-11T11:31:14.930Z,942.88
2018-05-11T11:32:23.124Z,942.74
2018-05-11T11:33:31.085Z,942.78
2018-05-11T11:34:39.312Z,942.78
2018-05-11T11:35:47.222Z,942.81
2018-05-11T11:36:55.269Z,942.85
2018-05-11T11:38:03.456Z,942.89
2018-05-11T11:39:11.414Z,942.87
2018-05-11T11:40:19.508Z,942.79
2018-05-11T11:41:27.576Z,942.70
2018-05-11T11:42:35.630Z,942.57
2018-05-11T11:43:43.789Z,942.62
2018-05-11T11:44:51.741Z,942.69
2018-05-11T11:45:59.844Z,942.62
2018-05-11T11:47:07.903Z,942.60
2018-05-11T11:48:15.971Z,942.58
2018-05-11T11:49:24.141Z,942.56
2018-05-11T11:50:32.099Z,942.54
2018-05-11T11:51:40.170Z,942.53
2018-05-11T11:52:48.255Z,942.45
2018-05-11T11:53:56.310Z,942.48
2018-05-11T11:55:04.493Z,942.48
2018-05-11T11:56:12.428Z,942.45
2018-05-11T11:57:20.521Z,942.50
2018-05-11T11:58:28.590Z,942.53
2018-05-11T11:59:36.660Z,942.48
2018-05-11T12:00:44.943Z,942.46
2018-05-11T12:01:52.825Z,942.52
2018-05-11T12:03:00.857Z,942.42
2018-05-11T12:04:08.941Z,942.42
2018-05-11T12:05:16.996Z,942.45
2018-05-11T12:06:25.166Z,942.45
2018-05-11T12:07:33.160Z,942.46
2018-05-11T12:08:41.212Z,942.53
2018-05-11T12:09:49.261Z,942.51
2018-05-11T12:10:57.348Z,942.45
2018-05-11T12:12:05.504Z,942.44
2018-05-11T12:13:13.484Z,942.41
2018-05-11T12:14:21.528Z,942.36
2018-05-11T12:15:29.686Z,942.35
2018-05-11T12:16:37.696Z,942.36
2018-05-11T12:17:46.234Z,942.29
2018-05-11T12:18:53.828Z,942.27
2018-05-11T12:20:01.866Z,942.31
2018-05-11T12:21:09.956Z,942.33
2018-05-11T12:22:18.023Z,942.27
2018-05-11T12:23:26.202Z,942.29
2018-05-11T12:24:34.158Z,942.24
2018-05-11T12:25:42.247Z,942.25
2018-05-11T12:26:50.302Z,942.23
2018-05-11T12:27:58.380Z,942.21
2018-05-11T12:29:06.559Z,942.26
2018-05-11T12:30:14.506Z,942.20
2018-05-11T12:31:22.565Z,942.17
2018-05-11T12:32:30.647Z,942.17
2018-05-11T12:33:38.699Z,942.14
2018-05-11T12:34:46.875Z,942.15
2018-05-11T12:35:54.849Z,942.15
2018-05-11T12:37:02.927Z,942.15
2018-05-11T12:38:10.986Z,942.19
2018-05-11T12:39:19.056Z,942.19
2018-05-11T12:40:27.218Z,942.24
2018-05-11T12:41:35.183Z,942.21
2018-05-11T12:42:43.256Z,942.19
2018-05-11T12:43:51.316Z,942.17
2018-05-11T12:44:59.395Z,942.11
2018-05-11T12:46:07.561Z,942.19
2018-05-11T12:47:15.530Z,942.19
2018-05-11T12:48:23.599Z,942.20
2018-05-11T12:49:31.669Z,942.14
2018-05-11T12:50:39.738Z,942.10
2018-05-11T12:51:47.915Z,942.01
2018-05-11T12:52:55.918Z,942.10
2018-05-11T12:54:04.060Z,942.10
2018-05-11T12:55:11.985Z,942.13
2018-05-11T12:56:20.078Z,942.05
2018-05-11T12:57:28.253Z,942.04
2018-05-11T12:58:36.216Z,942.02
2018-05-11T12:59:44.300Z,942.02
2018-05-11T13:00:52.345Z,942.00
2018-05-11T13:02:00.434Z,941.93
2018-05-11T13:03:08.583Z,941.93
2018-05-11T13:04:16.573Z,941.98
2018-05-11T13:05:24.631Z,941.98
2018-05-11T13:06:32.695Z,941.98
2018-05-11T13:07:40.762Z,942.00
2018-05-11T13:08:48.948Z,942.01
2018-05-11T13:09:56.879Z,941.99
2018-05-11T13:11:04.999Z,942.00
2018-05-11T13:12:13.032Z,941.96
2018-05-11T13:13:21.095Z,941.91
2018-05-11T13:14:29.397Z,941.91
2018-05-11T13:15:37.231Z,941.92
2018-05-11T13:16:45.305Z,941.92
2018-05-11T13:17:53.374Z,941.88
2018-05-11T13:19:01.440Z,941.98
2018-05-11T13:20:09.609Z,941.88
2018-05-11T13:21:17.565Z,941.90
2018-05-11T13:22:25.623Z,941.85
2018-05-11T13:23:33.701Z,941.83
2018-05-11T13:24:41.743Z,941.85
2018-05-11T13:25:49.953Z,941.89
2018-05-11T13:26:57.916Z,941.89
2018-05-11T13:28:05.999Z,941.85
2018-05-11T13:29:14.040Z,941.87
2018-05-11T13:30:22.113Z,941.83
2018-05-11T13:31:30.664Z,941.81
2018-05-11T13:32:38.263Z,941.80
2018-05-11T13:33:46.364Z,941.83
2018-05-11T13:34:54.397Z,941.83
2018-05-11T13:36:02.463Z,941.77
2018-05-11T13:37:10.633Z,941.80
2018-05-11T13:38:18.591Z,941.78
2018-05-11T13:39:26.666Z,941.76
2018-05-11T13:40:34.725Z,941.78
2018-05-11T13:41:42.802Z,941.78
2018-05-11T13:42:50.962Z,941.79
2018-05-11T13:43:58.936Z,941.76
2018-05-11T13:45:07.004Z,941.78
2018-05-11T13:46:15.077Z,941.73
2018-05-11T13:47:23.132Z,941.73
2018-05-11T13:48:31.382Z,941.73
2018-05-11T13:49:39.277Z,941.69
2018-05-11T13:50:47.336Z,941.65
2018-05-11T13:51:55.404Z,941.66
2018-05-11T13:53:03.480Z,941.65
2018-05-11T13:54:11.622Z,941.66
2018-05-11T13:55:19.613Z,941.61
2018-05-11T13:56:27.677Z,941.60
2018-05-11T13:57:35.755Z,941.64
2018-05-11T13:58:43.811Z,941.57
2018-05-11T13:59:52.092Z,941.62
2018-05-11T14:00:59.973Z,941.62
2018-05-11T14:02:08.032Z,941.57
2018-05-11T14:03:16.091Z,941.61
2018-05-11T14:04:24.141Z,941.58
2018-05-11T14:05:32.321Z,941.59
2018-05-11T14:06:40.290Z,941.52
2018-05-11T14:07:48.369Z,941.53
2018-05-11T14:08:56.445Z,941.54